createdAt,value
2022-09-24T00:00:02.436Z,10.97
2022-09-24T00:01:02.429Z,10.97
2022-09-24T00:02:02.488Z,10.94
2022-09-24T00:03:02.496Z,10.93
2022-09-24T00:04:02.451Z,10.92
2022-09-24T00:05:02.396Z,10.93
2022-09-24T00:06:02.392Z,10.87
2022-09-24T00:07:02.381Z,10.87
2022-09-24T00:08:02.374Z,10.81
2022-09-24T00:09:02.367Z,10.87
2022-09-24T00:10:02.362Z,10.86
2022-09-24T00:11:02.352Z,10.82
2022-09-24T00:12:02.347Z,10.74
2022-09-24T00:13:02.339Z,10.76
2022-09-24T00:14:02.334Z,10.75
2022-09-24T00:15:02.323Z,10.78
2022-09-24T00:16:02.385Z,10.76
2022-09-24T00:17:02.308Z,10.63
2022-09-24T00:18:02.301Z,10.76
2022-09-24T00:19:02.294Z,10.81
2022-09-24T00:20:02.284Z,10.68
2022-09-24T00:21:02.280Z,10.69
2022-09-24T00:22:02.277Z,10.64
2022-09-24T00:23:02.269Z,10.59
2022-09-24T00:24:02.325Z,10.60
2022-09-24T00:25:02.251Z,10.59
2022-09-24T00:26:02.243Z,10.68
2022-09-24T00:27:02.244Z,10.57
2022-09-24T00:28:02.230Z,10.54
2022-09-24T00:29:02.219Z,10.54
2022-09-24T00:30:02.211Z,10.60
2022-09-24T00:31:02.285Z,10.60
2022-09-24T00:32:02.205Z,10.44
2022-09-24T00:33:02.188Z,10.46
2022-09-24T00:34:02.230Z,10.42
2022-09-24T00:35:02.176Z,10.42
2022-09-24T00:36:02.176Z,10.49
2022-09-24T00:37:02.161Z,10.46
2022-09-24T00:38:02.152Z,10.48
2022-09-24T00:39:02.144Z,10.46
2022-09-24T00:40:02.136Z,10.42
2022-09-24T00:41:02.130Z,10.33
2022-09-24T00:42:02.124Z,10.35
2022-09-24T00:43:02.118Z,10.34
2022-09-24T00:44:02.180Z,10.31
2022-09-24T00:45:02.102Z,10.37
2022-09-24T00:46:02.093Z,10.30
2022-09-24T00:47:02.157Z,10.37
2022-09-24T00:48:02.078Z,10.28
2022-09-24T00:49:02.070Z,10.26
2022-09-24T00:50:02.061Z,10.35
2022-09-24T00:51:02.055Z,10.37
2022-09-24T00:52:02.047Z,10.34
2022-09-24T00:53:02.049Z,10.28
2022-09-24T00:54:02.086Z,10.33
2022-09-24T00:55:02.026Z,10.37
2022-09-24T00:56:02.016Z,10.25
2022-09-24T00:57:02.009Z,10.30
2022-09-24T00:58:02.001Z,10.22
2022-09-24T00:59:01.998Z,10.30
2022-09-24T01:00:01.988Z,10.20
2022-09-24T01:01:02.032Z,10.34
2022-09-24T01:02:02.055Z,10.30
2022-09-24T01:03:01.964Z,10.17
2022-09-24T01:04:01.957Z,10.22
2022-09-24T01:05:01.950Z,10.16
2022-09-24T01:06:01.943Z,10.23
2022-09-24T01:07:01.935Z,10.22
2022-09-24T01:08:01.926Z,10.20
2022-09-24T01:09:01.924Z,10.23
2022-09-24T01:10:01.910Z,10.25
2022-09-24T01:11:01.904Z,10.26
2022-09-24T01:12:01.911Z,10.23
2022-09-24T01:13:01.890Z,10.22
2022-09-24T01:14:01.907Z,10.19
2022-09-24T01:15:01.877Z,10.25
2022-09-24T01:16:01.955Z,10.25
2022-09-24T01:17:01.860Z,10.34
2022-09-24T01:18:01.852Z,10.34
2022-09-24T01:19:01.845Z,10.30
2022-09-24T01:20:01.840Z,10.31
2022-09-24T01:21:01.827Z,10.33
2022-09-24T01:22:01.821Z,10.34
2022-09-24T01:23:01.814Z,10.31
2022-09-24T01:24:01.878Z,10.33
2022-09-24T01:25:01.799Z,10.33
2022-09-24T01:26:01.790Z,10.30
2022-09-24T01:27:01.783Z,10.33
2022-09-24T01:28:01.775Z,10.37
2022-09-24T01:29:01.767Z,10.34
2022-09-24T01:30:01.814Z,10.33
2022-09-24T01:31:01.801Z,10.38
2022-09-24T01:32:01.747Z,10.41
2022-09-24T01:33:01.736Z,10.41
2022-09-24T01:34:01.832Z,10.46
2022-09-24T01:35:01.721Z,10.44
2022-09-24T01:36:01.717Z,10.42
2022-09-24T01:37:01.706Z,10.56
2022-09-24T01:38:01.697Z,10.57
2022-09-24T01:39:01.698Z,10.59
2022-09-24T01:40:01.683Z,10.60
2022-09-24T01:41:01.676Z,10.56
2022-09-24T01:42:01.670Z,10.60
2022-09-24T01:43:01.660Z,10.59
2022-09-24T01:44:01.675Z,10.61
2022-09-24T01:45:01.646Z,10.56
2022-09-24T01:46:08.846Z,10.56
2022-09-24T01:48:06.205Z,10.59
2022-09-24T01:49:05.801Z,10.53
2022-09-24T01:51:09.783Z,10.61
2022-09-24T01:52:09.766Z,10.60
2022-09-24T01:54:13.740Z,10.57
2022-09-24T01:55:13.724Z,10.54
2022-09-24T01:57:18.194Z,10.63
2022-09-24T01:58:18.178Z,10.54
2022-09-24T01:59:18.168Z,10.61
2022-09-24T02:00:18.160Z,10.59
2022-09-24T02:01:18.172Z,10.60
2022-09-24T02:02:18.275Z,10.69
2022-09-24T02:03:18.135Z,10.72
2022-09-24T02:04:18.135Z,10.72
2022-09-24T02:05:18.116Z,10.81
2022-09-24T02:06:18.106Z,10.68
2022-09-24T02:07:18.104Z,10.78
2022-09-24T02:08:18.099Z,10.68
2022-09-24T02:09:18.090Z,10.75
2022-09-24T02:10:18.080Z,10.76
2022-09-24T02:11:18.074Z,10.78
2022-09-24T02:12:18.065Z,10.82
2022-09-24T02:13:18.054Z,10.75
2022-09-24T02:14:18.047Z,10.76
2022-09-24T02:15:18.044Z,10.74
2022-09-24T02:16:18.092Z,10.75
2022-09-24T02:17:18.031Z,10.74
2022-09-24T02:18:18.019Z,10.75
2022-09-24T02:19:18.008Z,10.72
2022-09-24T02:20:18.003Z,10.79
2022-09-24T02:21:17.995Z,10.68
2022-09-24T02:22:17.986Z,10.75
2022-09-24T02:23:17.979Z,10.76
2022-09-24T02:24:17.976Z,10.75
2022-09-24T02:25:17.960Z,10.75
2022-09-24T02:26:17.967Z,10.79
2022-09-24T02:27:17.945Z,10.81
2022-09-24T02:28:17.943Z,10.75
2022-09-24T02:29:17.931Z,10.86
2022-09-24T02:30:17.924Z,10.72
2022-09-24T02:31:17.957Z,10.72
2022-09-24T02:32:17.911Z,10.86
2022-09-24T02:33:17.903Z,10.87
2022-09-24T02:34:17.892Z,10.89
2022-09-24T02:35:17.887Z,10.87
2022-09-24T02:36:17.882Z,10.81
2022-09-24T02:37:17.873Z,10.82
2022-09-24T02:38:17.873Z,10.87
2022-09-24T02:39:17.853Z,10.81
2022-09-24T02:40:17.881Z,10.89
2022-09-24T02:41:17.840Z,10.81
2022-09-24T02:42:17.838Z,10.89
2022-09-24T02:43:17.834Z,10.84
2022-09-24T02:44:17.826Z,10.82
2022-09-24T02:45:17.813Z,10.87
2022-09-24T02:46:17.833Z,10.90
2022-09-24T02:47:17.798Z,10.82
2022-09-24T02:48:17.791Z,10.87
2022-09-24T02:49:17.779Z,10.86
2022-09-24T02:50:17.774Z,10.84
2022-09-24T02:51:17.763Z,10.87
2022-09-24T02:52:17.763Z,10.89
2022-09-24T02:53:17.746Z,10.87
2022-09-24T02:54:17.742Z,10.76
2022-09-24T02:55:17.737Z,10.78
2022-09-24T02:56:17.730Z,10.68
2022-09-24T02:57:17.722Z,10.69
2022-09-24T02:58:17.712Z,10.67
2022-09-24T02:59:17.709Z,10.71
2022-09-24T03:00:17.713Z,10.63
2022-09-24T03:01:17.771Z,10.64
2022-09-24T03:02:17.764Z,10.72
2022-09-24T03:03:17.671Z,10.71
2022-09-24T03:04:17.669Z,10.61
2022-09-24T03:05:17.656Z,10.63
2022-09-24T03:06:17.656Z,10.53
2022-09-24T03:07:17.639Z,10.63
2022-09-24T03:08:17.635Z,10.59
2022-09-24T03:09:17.628Z,10.56
2022-09-24T03:10:17.620Z,10.53
2022-09-24T03:11:18.826Z,10.60
2022-09-24T03:12:17.602Z,10.54
2022-09-24T03:13:17.600Z,10.53
2022-09-24T03:14:17.585Z,10.67
2022-09-24T03:15:17.582Z,10.59
2022-09-24T03:16:17.623Z,10.61
2022-09-24T03:17:17.565Z,10.59
2022-09-24T03:18:17.565Z,10.67
2022-09-24T03:19:17.555Z,10.56
2022-09-24T03:20:17.548Z,10.59
2022-09-24T03:21:17.537Z,10.54
2022-09-24T03:22:17.526Z,10.61
2022-09-24T03:23:17.522Z,10.57
2022-09-24T03:24:17.537Z,10.57
2022-09-24T03:25:17.509Z,10.63
2022-09-24T03:26:17.507Z,10.59
2022-09-24T03:27:17.495Z,10.59
2022-09-24T03:28:17.478Z,10.54
2022-09-24T03:29:17.472Z,10.56
2022-09-24T03:30:17.471Z,10.61
2022-09-24T03:31:17.543Z,10.56
2022-09-24T03:32:17.454Z,10.48
2022-09-24T03:33:17.449Z,10.42
2022-09-24T03:34:17.432Z,10.46
2022-09-24T03:35:17.425Z,10.49
2022-09-24T03:36:17.424Z,10.56
2022-09-24T03:37:17.417Z,10.54
2022-09-24T03:38:17.402Z,10.56
2022-09-24T03:39:17.399Z,10.42
2022-09-24T03:40:17.431Z,10.40
2022-09-24T03:41:17.381Z,10.42
2022-09-24T03:42:17.369Z,10.44
2022-09-24T03:43:17.359Z,10.41
2022-09-24T03:44:17.360Z,10.48
2022-09-24T03:45:17.346Z,10.42
2022-09-24T03:46:17.511Z,10.44
2022-09-24T03:47:17.339Z,10.44
2022-09-24T03:48:17.329Z,10.48
2022-09-24T03:49:17.317Z,10.46
2022-09-24T03:50:17.325Z,10.49
2022-09-24T03:51:17.316Z,10.59
2022-09-24T03:52:17.297Z,10.51
2022-09-24T03:53:17.287Z,10.46
2022-09-24T03:54:17.279Z,10.54
2022-09-24T03:55:17.269Z,10.51
2022-09-24T03:56:17.265Z,10.46
2022-09-24T03:57:17.256Z,10.46
2022-09-24T03:58:17.251Z,10.42
2022-09-24T03:59:17.242Z,10.44
2022-09-24T04:00:17.242Z,10.51
2022-09-24T04:01:17.387Z,10.44
2022-09-24T04:02:17.220Z,10.48
2022-09-24T04:03:17.251Z,10.44
2022-09-24T04:04:17.203Z,10.49
2022-09-24T04:05:17.200Z,10.48
2022-09-24T04:06:20.686Z,10.48
2022-09-24T04:07:17.179Z,10.46
2022-09-24T04:08:17.172Z,10.44
2022-09-24T04:09:17.164Z,10.40
2022-09-24T04:10:17.156Z,10.40
2022-09-24T04:11:17.145Z,10.41
2022-09-24T04:12:17.148Z,10.37
2022-09-24T04:13:17.132Z,10.48
2022-09-24T04:14:17.127Z,10.42
2022-09-24T04:15:17.120Z,10.46
2022-09-24T04:16:17.174Z,10.46
2022-09-24T04:17:17.101Z,10.44
2022-09-24T04:18:17.097Z,10.44
2022-09-24T04:19:17.093Z,10.49
2022-09-24T04:20:17.080Z,10.57
2022-09-24T04:21:17.075Z,10.48
2022-09-24T04:22:17.068Z,10.49
2022-09-24T04:23:17.063Z,10.57
2022-09-24T04:24:17.049Z,10.46
2022-09-24T04:25:17.044Z,10.46
2022-09-24T04:26:17.038Z,10.42
2022-09-24T04:27:17.026Z,10.49
2022-09-24T04:28:17.021Z,10.48
2022-09-24T04:29:17.013Z,10.46
2022-09-24T04:30:17.007Z,10.41
2022-09-24T04:31:17.007Z,10.44
2022-09-24T04:32:16.990Z,10.49
2022-09-24T04:33:16.988Z,10.41
2022-09-24T04:34:16.975Z,10.49
2022-09-24T04:35:16.978Z,10.44
2022-09-24T04:36:16.960Z,10.49
2022-09-24T04:37:16.947Z,10.42
2022-09-24T04:38:16.944Z,10.51
2022-09-24T04:39:16.937Z,10.44
2022-09-24T04:40:16.959Z,10.48
2022-09-24T04:41:16.923Z,10.46
2022-09-24T04:42:16.915Z,10.44
2022-09-24T04:43:16.906Z,10.46
2022-09-24T04:44:16.899Z,10.48
2022-09-24T04:45:16.895Z,10.48
2022-09-24T04:46:16.931Z,10.49
2022-09-24T04:47:16.880Z,10.44
2022-09-24T04:48:16.873Z,10.46
2022-09-24T04:49:16.858Z,10.51
2022-09-24T04:50:16.854Z,10.54
2022-09-24T04:51:16.844Z,10.56
2022-09-24T04:52:16.838Z,10.48
2022-09-24T04:53:16.829Z,10.40
2022-09-24T04:54:16.821Z,10.61
2022-09-24T04:55:16.820Z,10.59
2022-09-24T04:56:16.806Z,10.46
2022-09-24T04:57:16.797Z,10.42
2022-09-24T04:58:16.787Z,10.35
2022-09-24T04:59:16.781Z,10.41
2022-09-24T05:00:16.775Z,10.37
2022-09-24T05:01:16.858Z,10.41
2022-09-24T05:02:16.802Z,10.28
2022-09-24T05:03:16.835Z,10.42
2022-09-24T05:04:16.744Z,10.48
2022-09-24T05:05:16.735Z,10.35
2022-09-24T05:06:16.729Z,10.44
2022-09-24T05:07:16.726Z,10.38
2022-09-24T05:08:16.720Z,10.28
2022-09-24T05:09:17.139Z,10.33
2022-09-24T05:10:16.698Z,10.28
2022-09-24T05:11:16.724Z,10.31
2022-09-24T05:12:16.682Z,10.33
2022-09-24T05:13:16.675Z,10.28
2022-09-24T05:14:16.667Z,10.33
2022-09-24T05:15:16.666Z,10.35
2022-09-24T05:16:16.688Z,10.42
2022-09-24T05:17:16.643Z,10.41
2022-09-24T05:18:16.640Z,10.44
2022-09-24T05:19:16.629Z,10.35
2022-09-24T05:20:16.619Z,10.41
2022-09-24T05:21:16.614Z,10.51
2022-09-24T05:22:16.613Z,10.44
2022-09-24T05:23:16.597Z,10.44
2022-09-24T05:24:16.590Z,10.53
2022-09-24T05:25:16.580Z,10.44
2022-09-24T05:26:16.569Z,10.44
2022-09-24T05:27:16.574Z,10.42
2022-09-24T05:28:16.561Z,10.56
2022-09-24T05:29:16.547Z,10.59
2022-09-24T05:30:16.546Z,10.56
2022-09-24T05:31:16.597Z,10.63
2022-09-24T05:32:16.600Z,10.53
2022-09-24T05:33:16.518Z,10.57
2022-09-24T05:34:16.513Z,10.63
2022-09-24T05:35:16.504Z,10.68
2022-09-24T05:36:16.494Z,10.64
2022-09-24T05:37:16.490Z,10.59
2022-09-24T05:38:16.478Z,10.56
2022-09-24T05:39:16.472Z,10.54
2022-09-24T05:40:16.525Z,10.57
2022-09-24T05:41:16.457Z,10.54
2022-09-24T05:42:16.456Z,10.59
2022-09-24T05:43:16.468Z,10.61
2022-09-24T05:44:16.434Z,10.60
2022-09-24T05:45:16.424Z,10.56
2022-09-24T05:46:16.440Z,10.56
2022-09-24T05:47:16.406Z,10.59
2022-09-24T05:48:16.393Z,10.64
2022-09-24T05:49:16.391Z,10.59
2022-09-24T05:50:16.386Z,10.63
2022-09-24T05:51:16.381Z,10.69
2022-09-24T05:52:16.372Z,10.68
2022-09-24T05:53:16.366Z,10.69
2022-09-24T05:54:16.403Z,10.64
2022-09-24T05:55:16.345Z,10.69
2022-09-24T05:56:16.340Z,10.78
2022-09-24T05:57:16.326Z,10.76
2022-09-24T05:58:16.321Z,10.69
2022-09-24T05:59:16.313Z,10.79
2022-09-24T06:00:16.306Z,10.78
2022-09-24T06:01:16.295Z,10.84
2022-09-24T06:02:16.412Z,10.84
2022-09-24T06:03:16.346Z,10.89
2022-09-24T06:04:16.278Z,10.82
2022-09-24T06:05:16.266Z,10.99
2022-09-24T06:06:16.258Z,11.04
2022-09-24T06:07:16.252Z,11.05
2022-09-24T06:08:16.241Z,10.99
2022-09-24T06:09:16.230Z,10.99
2022-09-24T06:10:16.230Z,10.96
2022-09-24T06:11:16.219Z,10.97
2022-09-24T06:12:16.209Z,11.10
2022-09-24T06:13:16.203Z,11.07
2022-09-24T06:14:16.207Z,11.07
2022-09-24T06:15:16.185Z,11.14
2022-09-24T06:16:16.217Z,11.12
2022-09-24T06:17:16.187Z,11.19
2022-09-24T06:18:16.164Z,11.19
2022-09-24T06:19:16.160Z,11.18
2022-09-24T06:20:16.148Z,11.15
2022-09-24T06:21:16.137Z,11.27
2022-09-24T06:22:16.152Z,11.33
2022-09-24T06:23:16.127Z,11.33
2022-09-24T06:24:16.117Z,11.40
2022-09-24T06:25:16.115Z,11.45
2022-09-24T06:26:16.104Z,11.43
2022-09-24T06:27:16.096Z,11.51
2022-09-24T06:28:16.086Z,11.50
2022-09-24T06:29:16.081Z,11.54
2022-09-24T06:30:16.072Z,11.51
2022-09-24T06:31:16.125Z,11.63
2022-09-24T06:32:16.060Z,11.57
2022-09-24T06:33:16.050Z,11.68
2022-09-24T06:34:16.043Z,11.68
2022-09-24T06:35:16.043Z,11.63
2022-09-24T06:36:16.036Z,11.72
2022-09-24T06:37:16.024Z,11.72
2022-09-24T06:38:16.014Z,11.77
2022-09-24T06:39:16.008Z,11.72
2022-09-24T06:40:16.065Z,11.72
2022-09-24T06:41:15.988Z,11.75
2022-09-24T06:42:15.983Z,11.80
2022-09-24T06:43:15.978Z,11.69
2022-09-24T06:44:15.971Z,11.80
2022-09-24T06:45:15.967Z,11.86
2022-09-24T06:46:16.021Z,11.90
2022-09-24T06:47:15.960Z,11.77
2022-09-24T06:48:15.943Z,11.78
2022-09-24T06:49:15.931Z,11.77
2022-09-24T06:50:15.927Z,11.83
2022-09-24T06:51:15.921Z,11.86
2022-09-24T06:52:15.911Z,11.84
2022-09-24T06:53:15.908Z,11.87
2022-09-24T06:54:15.901Z,11.87
2022-09-24T06:55:15.891Z,11.86
2022-09-24T06:56:15.887Z,11.83
2022-09-24T06:57:15.875Z,11.90
2022-09-24T06:58:15.869Z,11.86
2022-09-24T06:59:15.862Z,11.87
2022-09-24T07:00:15.855Z,11.94
2022-09-24T07:01:15.885Z,12.04
2022-09-24T07:02:15.900Z,12.07
2022-09-24T07:03:15.837Z,11.99
2022-09-24T07:04:15.826Z,12.12
2022-09-24T07:05:15.819Z,12.17
2022-09-24T07:06:15.808Z,12.09
2022-09-24T07:07:15.813Z,12.12
2022-09-24T07:08:15.870Z,12.12
2022-09-24T07:09:15.792Z,12.06
2022-09-24T07:10:15.785Z,12.22
2022-09-24T07:11:15.778Z,12.12
2022-09-24T07:12:15.770Z,12.21
2022-09-24T07:13:15.767Z,12.28
2022-09-24T07:14:15.760Z,12.21
2022-09-24T07:15:15.753Z,12.27
2022-09-24T07:16:15.784Z,12.39
2022-09-24T07:17:15.740Z,12.53
2022-09-24T07:18:15.735Z,12.46
2022-09-24T07:19:15.720Z,12.46
2022-09-24T07:20:15.717Z,12.54
2022-09-24T07:21:15.708Z,12.58
2022-09-24T07:22:15.704Z,12.64
2022-09-24T07:23:15.698Z,12.65
2022-09-24T07:24:15.687Z,12.75
2022-09-24T07:25:15.683Z,12.78
2022-09-24T07:26:15.670Z,12.85
2022-09-24T07:27:15.667Z,12.95
2022-09-24T07:28:15.661Z,13.03
2022-09-24T07:29:15.653Z,13.05
2022-09-24T07:30:15.647Z,13.13
2022-09-24T07:31:15.677Z,13.19
2022-09-24T07:32:15.634Z,13.27
2022-09-24T07:33:15.636Z,13.37
2022-09-24T07:34:15.617Z,13.31
2022-09-24T07:35:15.615Z,13.46
2022-09-24T07:36:15.609Z,13.42
2022-09-24T07:37:15.606Z,13.47
2022-09-24T07:38:15.604Z,13.53
2022-09-24T07:39:15.590Z,13.67
2022-09-24T07:40:15.667Z,13.65
2022-09-24T07:41:15.582Z,13.71
2022-09-24T07:42:15.570Z,13.81
2022-09-24T07:43:15.561Z,13.83
2022-09-24T07:44:15.568Z,13.86
2022-09-24T07:45:15.550Z,14.04
2022-09-24T07:46:22.745Z,13.85
2022-09-24T07:48:19.536Z,13.95
2022-09-24T07:49:19.520Z,13.89
2022-09-24T07:51:23.501Z,13.96
2022-09-24T07:52:23.484Z,14.03
2022-09-24T07:54:27.473Z,13.96
2022-09-24T07:55:27.540Z,14.07
2022-09-24T07:57:20.362Z,13.97
2022-09-24T07:58:20.348Z,14.05
2022-09-24T08:00:24.333Z,13.92
2022-09-24T08:01:24.387Z,13.83
2022-09-24T08:03:28.361Z,13.87
2022-09-24T08:04:28.286Z,13.89
2022-09-24T08:06:21.379Z,14.03
2022-09-24T08:07:21.374Z,14.10
2022-09-24T08:09:25.377Z,13.95
2022-09-24T08:10:25.361Z,13.95
2022-09-24T08:12:18.290Z,14.05
2022-09-24T08:13:18.270Z,13.99
2022-09-24T08:15:11.371Z,14.08
2022-09-24T08:16:11.383Z,14.11
2022-09-24T08:18:15.343Z,14.17
2022-09-24T08:19:15.324Z,14.12
2022-09-24T08:21:08.246Z,14.15
2022-09-24T08:22:08.235Z,14.20
2022-09-24T08:24:12.454Z,14.41
2022-09-24T08:25:12.438Z,14.45
2022-09-24T08:27:05.354Z,14.63
2022-09-24T08:28:05.343Z,14.78
2022-09-24T08:30:20.474Z,14.97
2022-09-24T08:31:20.494Z,15.10
2022-09-24T08:33:13.382Z,15.17
2022-09-24T08:34:13.364Z,15.24
2022-09-24T08:36:17.461Z,15.24
2022-09-24T08:37:17.341Z,15.27
2022-09-24T08:38:17.337Z,15.27
2022-09-24T08:39:17.333Z,15.43
2022-09-24T08:40:17.377Z,15.49
2022-09-24T08:41:17.324Z,15.54
2022-09-24T08:42:17.313Z,15.55
2022-09-24T08:43:17.311Z,15.58
2022-09-24T08:44:17.307Z,15.57
2022-09-24T08:45:17.326Z,15.59
2022-09-24T08:46:17.373Z,15.75
2022-09-24T08:47:17.290Z,15.65
2022-09-24T08:48:17.284Z,15.68
2022-09-24T08:49:17.279Z,15.64
2022-09-24T08:50:17.290Z,15.70
2022-09-24T08:51:17.273Z,15.75
2022-09-24T08:52:17.269Z,15.84
2022-09-24T08:53:17.261Z,16.01
2022-09-24T08:54:17.257Z,16.10
2022-09-24T08:55:17.252Z,16.09
2022-09-24T08:56:17.246Z,16.12
2022-09-24T08:57:17.247Z,16.20
2022-09-24T08:58:17.239Z,16.23
2022-09-24T08:59:17.233Z,16.29
2022-09-24T09:00:17.232Z,16.32
2022-09-24T09:01:17.268Z,16.32
2022-09-24T09:02:17.399Z,16.46
2022-09-24T09:03:17.298Z,16.31
2022-09-24T09:04:17.210Z,16.02
2022-09-24T09:05:17.206Z,15.80
2022-09-24T09:06:17.199Z,15.75
2022-09-24T09:07:17.195Z,15.77
2022-09-24T09:08:46.748Z,15.94
2022-09-24T09:09:17.349Z,16.08
2022-09-24T09:10:17.182Z,16.13
2022-09-24T09:11:17.177Z,16.23
2022-09-24T09:12:17.181Z,16.02
2022-09-24T09:13:17.168Z,15.54
2022-09-24T09:14:17.164Z,15.49
2022-09-24T09:15:17.161Z,15.40
2022-09-24T09:16:17.204Z,15.44
2022-09-24T09:17:17.151Z,15.49
2022-09-24T09:18:17.147Z,15.37
2022-09-24T09:19:17.142Z,15.42
2022-09-24T09:20:17.143Z,15.40
2022-09-24T09:21:17.133Z,15.39
2022-09-24T09:22:17.127Z,15.54
2022-09-24T09:23:17.125Z,15.62
2022-09-24T09:24:17.126Z,15.64
2022-09-24T09:25:17.115Z,15.65
2022-09-24T09:26:17.110Z,15.77
2022-09-24T09:27:17.108Z,15.90
2022-09-24T09:28:17.101Z,16.09
2022-09-24T09:29:17.100Z,16.10
2022-09-24T09:30:17.172Z,16.00
2022-09-24T09:31:17.155Z,15.77
2022-09-24T09:32:17.084Z,15.59
2022-09-24T09:33:17.081Z,15.54
2022-09-24T09:34:17.074Z,15.65
2022-09-24T09:35:17.071Z,15.79
2022-09-24T09:36:17.067Z,16.02
2022-09-24T09:37:18.351Z,16.13
2022-09-24T09:38:17.057Z,15.79
2022-09-24T09:39:17.053Z,15.94
2022-09-24T09:40:17.231Z,16.02
2022-09-24T09:41:17.045Z,16.26
2022-09-24T09:42:17.042Z,16.49
2022-09-24T09:43:17.042Z,16.71
2022-09-24T09:44:17.033Z,16.76
2022-09-24T09:45:17.033Z,16.87
2022-09-24T09:46:17.090Z,17.01
2022-09-24T09:47:17.020Z,17.11
2022-09-24T09:48:17.017Z,17.33
2022-09-24T09:49:17.010Z,17.39
2022-09-24T09:50:17.007Z,17.54
2022-09-24T09:51:21.840Z,17.27
2022-09-24T09:52:17.003Z,17.26
2022-09-24T09:53:16.997Z,17.36
2022-09-24T09:54:16.992Z,17.36
2022-09-24T09:55:16.988Z,17.36
2022-09-24T09:56:16.982Z,17.24
2022-09-24T09:57:16.979Z,17.09
2022-09-24T09:58:16.977Z,17.20
2022-09-24T09:59:16.970Z,17.29
2022-09-24T10:00:16.972Z,17.36
2022-09-24T10:01:16.967Z,17.49
2022-09-24T10:02:17.031Z,17.36
2022-09-24T10:03:17.008Z,17.27
2022-09-24T10:04:16.954Z,17.34
2022-09-24T10:05:19.380Z,17.33
2022-09-24T10:06:16.945Z,17.54
2022-09-24T10:07:16.943Z,17.67
2022-09-24T10:08:16.944Z,17.67
2022-09-24T10:09:16.935Z,17.60
2022-09-24T10:10:16.956Z,17.71
2022-09-24T10:11:16.930Z,17.64
2022-09-24T10:12:16.928Z,17.64
2022-09-24T10:13:16.922Z,17.63
2022-09-24T10:14:16.919Z,17.46
2022-09-24T10:15:16.916Z,17.41
2022-09-24T10:16:16.946Z,17.33
2022-09-24T10:17:16.918Z,17.08
2022-09-24T10:18:16.906Z,16.89
2022-09-24T10:19:16.917Z,16.90
2022-09-24T10:20:16.900Z,16.94
2022-09-24T10:21:16.895Z,16.89
2022-09-24T10:22:16.890Z,17.01
2022-09-24T10:23:16.890Z,16.89
2022-09-24T10:24:16.977Z,16.93
2022-09-24T10:25:16.880Z,16.99
2022-09-24T10:26:16.879Z,16.94
2022-09-24T10:27:16.873Z,16.89
2022-09-24T10:28:16.874Z,16.64
2022-09-24T10:29:16.877Z,16.54
2022-09-24T10:30:16.871Z,16.39
2022-09-24T10:31:16.923Z,16.54
2022-09-24T10:32:16.855Z,16.54
2022-09-24T10:33:16.851Z,16.61
2022-09-24T10:34:16.849Z,16.79
2022-09-24T10:35:16.845Z,16.91
2022-09-24T10:36:16.842Z,16.90
2022-09-24T10:37:16.837Z,16.87
2022-09-24T10:38:16.834Z,17.01
2022-09-24T10:39:16.838Z,17.14
2022-09-24T10:40:16.874Z,17.09
2022-09-24T10:41:16.822Z,17.14
2022-09-24T10:42:16.820Z,17.09
2022-09-24T10:43:16.827Z,17.14
2022-09-24T10:44:16.813Z,17.11
2022-09-24T10:45:16.806Z,17.19
2022-09-24T10:46:16.861Z,17.15
2022-09-24T10:47:16.800Z,17.22
2022-09-24T10:48:16.798Z,17.23
2022-09-24T10:49:16.792Z,17.29
2022-09-24T10:50:16.789Z,17.26
2022-09-24T10:51:16.854Z,17.27
2022-09-24T10:52:16.783Z,17.34
2022-09-24T10:53:16.779Z,17.38
2022-09-24T10:54:16.774Z,17.39
2022-09-24T10:55:16.771Z,17.48
2022-09-24T10:56:16.767Z,17.54
2022-09-24T10:57:16.764Z,17.38
2022-09-24T10:58:16.759Z,17.22
2022-09-24T10:59:16.841Z,17.16
2022-09-24T11:00:16.755Z,17.11
2022-09-24T11:01:16.809Z,17.24
2022-09-24T11:02:16.805Z,17.19
2022-09-24T11:03:16.794Z,17.24
2022-09-24T11:04:16.742Z,17.33
2022-09-24T11:05:16.735Z,17.34
2022-09-24T11:06:16.731Z,17.27
2022-09-24T11:07:16.732Z,17.36
2022-09-24T11:08:16.724Z,17.36
2022-09-24T11:09:16.721Z,17.27
2022-09-24T11:10:16.721Z,17.12
2022-09-24T11:11:16.715Z,17.02
2022-09-24T11:12:16.718Z,16.97
2022-09-24T11:13:16.706Z,17.01
2022-09-24T11:14:16.704Z,16.99
2022-09-24T11:15:16.700Z,17.01
2022-09-24T11:16:16.753Z,17.01
2022-09-24T11:17:16.692Z,16.93
2022-09-24T11:18:16.684Z,16.96
2022-09-24T11:19:16.687Z,17.02
2022-09-24T11:20:16.683Z,16.86
2022-09-24T11:21:16.678Z,17.01
2022-09-24T11:22:16.676Z,16.96
2022-09-24T11:23:16.671Z,17.04
2022-09-24T11:24:16.667Z,17.04
2022-09-24T11:25:16.665Z,17.04
2022-09-24T11:26:16.683Z,16.96
2022-09-24T11:27:16.656Z,17.09
2022-09-24T11:28:16.654Z,16.99
2022-09-24T11:29:16.652Z,17.01
2022-09-24T11:30:16.647Z,17.02
2022-09-24T11:31:16.687Z,16.81
2022-09-24T11:32:16.639Z,16.87
2022-09-24T11:33:22.099Z,16.91
2022-09-24T11:34:16.632Z,17.01
2022-09-24T11:35:16.647Z,17.04
2022-09-24T11:36:16.628Z,17.08
2022-09-24T11:37:16.620Z,17.14
2022-09-24T11:38:16.617Z,17.15
2022-09-24T11:39:16.693Z,17.15
2022-09-24T11:40:16.679Z,17.29
2022-09-24T11:41:16.604Z,17.38
2022-09-24T11:42:16.607Z,17.36
2022-09-24T11:43:16.596Z,17.45
2022-09-24T11:44:16.595Z,17.46
2022-09-24T11:45:16.593Z,17.60
2022-09-24T11:46:16.639Z,17.63
2022-09-24T11:47:16.585Z,17.78
2022-09-24T11:48:16.581Z,17.78
2022-09-24T11:49:16.576Z,17.57
2022-09-24T11:50:16.574Z,17.74
2022-09-24T11:51:16.570Z,17.72
2022-09-24T11:52:16.571Z,17.64
2022-09-24T11:53:16.561Z,17.74
2022-09-24T11:54:16.558Z,17.71
2022-09-24T11:55:16.555Z,17.70
2022-09-24T11:56:16.551Z,17.72
2022-09-24T11:57:16.560Z,17.74
2022-09-24T11:58:16.548Z,17.82
2022-09-24T11:59:16.543Z,17.87
2022-09-24T12:00:16.548Z,17.82
2022-09-24T12:01:16.549Z,17.78
2022-09-24T12:02:16.559Z,17.63
2022-09-24T12:03:16.632Z,17.64
2022-09-24T12:04:16.530Z,17.54
2022-09-24T12:05:16.523Z,17.48
2022-09-24T12:06:16.518Z,17.42
2022-09-24T12:07:16.515Z,17.44
2022-09-24T12:08:16.509Z,17.45
2022-09-24T12:09:16.508Z,17.54
2022-09-24T12:10:16.502Z,17.63
2022-09-24T12:11:16.567Z,17.74
2022-09-24T12:12:16.501Z,17.85
2022-09-24T12:13:16.494Z,17.86
2022-09-24T12:14:16.488Z,17.89
2022-09-24T12:15:16.492Z,18.10
2022-09-24T12:16:16.524Z,18.11
2022-09-24T12:17:16.480Z,18.08
2022-09-24T12:18:16.477Z,17.97
2022-09-24T12:19:16.475Z,17.89
2022-09-24T12:20:16.471Z,17.70
2022-09-24T12:21:16.467Z,17.64
2022-09-24T12:22:16.463Z,17.46
2022-09-24T12:23:16.468Z,17.46
2022-09-24T12:24:16.456Z,17.46
2022-09-24T12:25:16.457Z,17.48
2022-09-24T12:26:16.455Z,17.60
2022-09-24T12:27:16.450Z,17.64
2022-09-24T12:28:16.446Z,17.72
2022-09-24T12:29:16.442Z,17.80
2022-09-24T12:30:16.438Z,17.89
2022-09-24T12:31:16.496Z,17.85
2022-09-24T12:32:16.435Z,17.85
2022-09-24T12:33:16.429Z,17.83
2022-09-24T12:34:16.425Z,17.87
2022-09-24T12:35:16.426Z,17.82
2022-09-24T12:36:16.420Z,17.86
2022-09-24T12:37:16.417Z,17.85
2022-09-24T12:38:16.414Z,17.87
2022-09-24T12:39:16.411Z,17.85
2022-09-24T12:40:16.449Z,17.76
2022-09-24T12:41:16.405Z,17.80
2022-09-24T12:42:16.403Z,17.89
2022-09-24T12:43:16.397Z,17.92
2022-09-24T12:44:21.768Z,17.87
2022-09-24T12:45:16.392Z,17.90
2022-09-24T12:46:16.472Z,17.82
2022-09-24T12:47:16.385Z,17.83
2022-09-24T12:48:16.382Z,17.92
2022-09-24T12:49:16.380Z,17.98
2022-09-24T12:50:16.378Z,18.03
2022-09-24T12:51:16.374Z,17.95
2022-09-24T12:52:16.370Z,17.95
2022-09-24T12:53:16.365Z,17.87
2022-09-24T12:54:16.372Z,18.00
2022-09-24T12:55:16.363Z,18.05
2022-09-24T12:56:16.360Z,18.16
2022-09-24T12:57:19.104Z,18.13
2022-09-24T12:58:16.352Z,17.95
2022-09-24T12:59:16.354Z,17.85
2022-09-24T13:00:16.347Z,17.60
2022-09-24T13:01:16.381Z,17.45
2022-09-24T13:02:16.464Z,17.49
2022-09-24T13:03:16.391Z,17.59
2022-09-24T13:04:16.338Z,17.56
2022-09-24T13:05:16.330Z,17.60
2022-09-24T13:06:16.328Z,17.60
2022-09-24T13:07:16.325Z,17.54
2022-09-24T13:08:16.325Z,17.79
2022-09-24T13:09:16.319Z,17.76
2022-09-24T13:10:16.318Z,17.97
2022-09-24T13:11:16.313Z,18.04
2022-09-24T13:12:16.315Z,18.11
2022-09-24T13:13:16.314Z,18.15